createdAt,value
2023-04-03T00:01:49.830Z,2.70
2023-04-03T00:04:18.229Z,2.47
2023-04-03T00:06:47.998Z,2.60
2023-04-03T00:09:16.347Z,2.60
2023-04-03T00:11:44.734Z,2.67
2023-04-03T00:14:13.056Z,2.53
2023-04-03T00:16:41.403Z,2.93
2023-04-03T00:19:09.797Z,2.60
2023-04-03T00:21:38.140Z,2.43
2023-04-03T00:24:08.360Z,2.63
2023-04-03T00:26:36.737Z,2.60
2023-04-03T00:29:05.069Z,2.67
2023-04-03T00:31:33.438Z,2.33
2023-04-03T00:34:01.830Z,2.40
2023-04-03T00:36:30.319Z,3.10
2023-04-03T00:38:58.848Z,2.57
2023-04-03T00:41:28.576Z,2.43
2023-04-03T00:43:56.942Z,2.50
2023-04-03T00:46:25.320Z,2.47
2023-04-03T00:48:53.695Z,2.70
2023-04-03T00:51:22.682Z,2.27
2023-04-03T00:53:51.900Z,2.20
2023-04-03T00:56:20.771Z,2.13
2023-04-03T00:58:51.472Z,2.90
2023-04-03T01:01:21.378Z,2.47
2023-04-03T01:03:49.889Z,2.27
2023-04-03T01:06:18.801Z,1.93
2023-04-03T01:08:47.919Z,2.47
2023-04-03T01:11:16.532Z,2.30
2023-04-03T01:13:44.955Z,2.27
2023-04-03T01:16:14.787Z,2.20
2023-04-03T01:18:43.185Z,2.50
2023-04-03T01:21:20.134Z,1.90
2023-04-03T01:23:54.542Z,2.30
2023-04-03T01:26:23.293Z,2.33
2023-04-03T01:28:51.664Z,1.90
2023-04-03T01:31:23.191Z,2.20
2023-04-03T01:33:53.087Z,2.13
2023-04-03T01:36:22.045Z,2.10
2023-04-03T01:38:51.023Z,2.10
2023-04-03T01:41:19.519Z,2.20
2023-04-03T01:43:47.902Z,2.00
2023-04-03T01:46:16.287Z,2.27
2023-04-03T01:48:44.915Z,2.27
2023-04-03T01:51:14.621Z,2.27
2023-04-03T01:53:42.972Z,2.20
2023-04-03T01:56:11.328Z,2.13
2023-04-03T01:58:39.708Z,2.10
2023-04-03T02:01:08.073Z,1.97
2023-04-03T02:03:36.646Z,2.17
2023-04-03T02:06:05.273Z,1.90
2023-04-03T02:08:34.994Z,1.13
2023-04-03T02:11:03.443Z,1.70
2023-04-03T02:13:35.385Z,1.57
2023-04-03T02:16:08.726Z,1.63
2023-04-03T02:18:37.117Z,2.00
2023-04-03T02:21:05.839Z,1.80
2023-04-03T02:23:37.163Z,1.80
2023-04-03T02:26:06.914Z,1.60
2023-04-03T02:28:35.296Z,1.60
2023-04-03T02:31:03.737Z,1.50
2023-04-03T02:33:32.249Z,1.43
2023-04-03T02:36:00.721Z,1.77
2023-04-03T02:38:29.117Z,1.40
2023-04-03T02:41:03.546Z,1.70
2023-04-03T02:43:31.884Z,1.47
2023-04-03T02:46:05.192Z,1.60
2023-04-03T02:48:33.778Z,1.60
2023-04-03T02:51:02.170Z,1.50
2023-04-03T02:53:30.508Z,1.60
2023-04-03T02:55:58.896Z,1.60
2023-04-03T02:58:28.704Z,1.37
2023-04-03T03:00:57.063Z,1.40
2023-04-03T03:03:25.454Z,1.30
2023-04-03T03:06:03.041Z,1.60
2023-04-03T03:08:31.379Z,1.23
2023-04-03T03:10:59.744Z,1.50
2023-04-03T03:13:29.396Z,1.40
2023-04-03T03:15:57.733Z,1.23
2023-04-03T03:18:26.299Z,1.17
2023-04-03T03:20:54.702Z,1.10
2023-04-03T03:23:23.829Z,1.50
2023-04-03T03:25:52.172Z,1.77
2023-04-03T03:28:20.584Z,1.80
2023-04-03T03:30:50.311Z,1.50
2023-04-03T03:33:18.645Z,1.50
2023-04-03T03:35:47.205Z,1.10
2023-04-03T03:38:15.562Z,1.30
2023-04-03T03:40:43.922Z,1.33
2023-04-03T03:43:12.265Z,1.10
2023-04-03T03:45:40.805Z,1.00
2023-04-03T03:48:10.499Z,1.20
2023-04-03T03:50:38.848Z,1.30
2023-04-03T03:53:11.374Z,1.10
2023-04-03T03:55:41.260Z,1.30
2023-04-03T03:58:09.610Z,1.67
2023-04-03T04:00:38.111Z,1.20
2023-04-03T04:03:06.524Z,1.33
2023-04-03T04:05:36.717Z,1.00
2023-04-03T04:08:05.169Z,1.47
2023-04-03T04:10:33.518Z,1.33
2023-04-03T04:13:01.825Z,1.00
2023-04-03T04:15:30.360Z,1.40
2023-04-03T04:17:59.014Z,1.40
2023-04-03T04:20:27.367Z,1.30
2023-04-03T04:22:57.080Z,1.10
2023-04-03T04:25:25.424Z,0.90
2023-04-03T04:27:59.220Z,1.03
2023-04-03T04:30:28.478Z,1.20
2023-04-03T04:32:57.114Z,1.00
2023-04-03T04:35:41.738Z,1.23
2023-04-03T04:38:34.385Z,1.00
2023-04-03T04:41:06.614Z,1.00
2023-04-03T04:43:41.218Z,1.40
2023-04-03T04:46:12.691Z,1.17
2023-04-03T04:48:41.399Z,0.90
2023-04-03T04:51:23.241Z,0.97
2023-04-03T04:53:52.363Z,1.30
2023-04-03T04:56:36.834Z,1.03
2023-04-03T04:59:05.155Z,0.97
2023-04-03T05:01:33.534Z,1.50
2023-04-03T05:04:01.921Z,1.00
2023-04-03T05:06:31.137Z,1.30
2023-04-03T05:09:11.964Z,1.43
2023-04-03T05:11:54.819Z,1.60
2023-04-03T05:14:23.145Z,1.00
2023-04-03T05:16:53.826Z,1.47
2023-04-03T05:19:22.276Z,1.13
2023-04-03T05:22:05.314Z,1.20
2023-04-03T05:24:34.008Z,1.20
2023-04-03T05:27:03.752Z,1.20
2023-04-03T05:29:58.757Z,1.30
2023-04-03T05:32:27.917Z,1.23
2023-04-03T05:34:56.271Z,1.20
2023-04-03T05:37:24.593Z,0.80
2023-04-03T05:39:53.102Z,1.10
2023-04-03T05:42:40.360Z,1.43
2023-04-03T05:45:28.449Z,1.10
2023-04-03T05:48:00.682Z,1.20
2023-04-03T05:50:29.074Z,1.43
2023-04-03T05:52:58.257Z,0.90
2023-04-03T05:55:29.338Z,1.13
2023-04-03T05:57:57.660Z,1.37
2023-04-03T06:00:29.988Z,1.20
2023-04-03T06:02:58.524Z,1.00
2023-04-03T06:05:28.801Z,1.10
2023-04-03T06:07:58.059Z,1.40
2023-04-03T06:10:26.433Z,1.37
2023-04-03T06:12:54.791Z,1.40
2023-04-03T06:15:23.162Z,1.60
2023-04-03T06:17:51.597Z,1.10
2023-04-03T06:20:20.034Z,1.10
2023-04-03T06:22:49.770Z,1.23
2023-04-03T06:25:23.304Z,1.33
2023-04-03T06:27:53.455Z,1.23
2023-04-03T06:30:21.902Z,1.07
2023-04-03T06:32:50.545Z,1.03
2023-04-03T06:35:19.070Z,1.27
2023-04-03T06:37:47.539Z,1.23
2023-04-03T06:40:18.874Z,1.13
2023-04-03T06:42:47.218Z,1.30
2023-04-03T06:45:15.702Z,1.23
2023-04-03T06:47:44.083Z,1.30
2023-04-03T06:50:15.058Z,1.20
2023-04-03T06:52:43.424Z,1.37
2023-04-03T06:55:11.780Z,1.47
2023-04-03T06:57:41.582Z,1.30
2023-04-03T07:00:11.040Z,1.20
2023-04-03T07:02:39.434Z,1.30
2023-04-03T07:05:08.283Z,1.40
2023-04-03T07:07:36.683Z,1.10
2023-04-03T07:10:12.234Z,1.60
2023-04-03T07:12:41.970Z,1.40
2023-04-03T07:15:10.847Z,1.30
2023-04-03T07:17:39.225Z,1.30
2023-04-03T07:20:08.231Z,1.23
2023-04-03T07:22:36.578Z,1.40
2023-04-03T07:25:05.495Z,1.00
2023-04-03T07:27:35.488Z,1.57
2023-04-03T07:30:05.451Z,1.40
2023-04-03T07:32:33.891Z,1.10
2023-04-03T07:35:02.950Z,1.17
2023-04-03T07:37:33.444Z,1.40
2023-04-03T07:40:04.480Z,1.50
2023-04-03T07:42:36.070Z,1.20
2023-04-03T07:45:05.962Z,1.23
2023-04-03T07:47:34.325Z,1.33
2023-04-03T07:50:02.681Z,1.30
2023-04-03T07:52:31.167Z,1.27
2023-04-03T07:54:59.521Z,1.03
2023-04-03T07:57:27.896Z,1.40
2023-04-03T07:59:56.263Z,1.03
2023-04-03T08:02:32.870Z,1.07
2023-04-03T08:05:01.751Z,1.20
2023-04-03T08:07:30.126Z,1.00
2023-04-03T08:09:58.537Z,0.93
2023-04-03T08:12:26.886Z,1.40
2023-04-03T08:14:55.235Z,1.20
2023-04-03T08:17:31.030Z,1.07
2023-04-03T08:19:59.387Z,1.30
2023-04-03T08:22:27.809Z,1.30
2023-04-03T08:24:59.506Z,1.17
2023-04-03T08:27:28.598Z,1.13
2023-04-03T08:29:57.969Z,1.10
2023-04-03T08:32:26.695Z,1.10
2023-04-03T08:34:56.498Z,1.23
2023-04-03T08:37:24.891Z,1.40
2023-04-03T08:39:53.436Z,1.13
2023-04-03T08:42:25.482Z,0.83
2023-04-03T08:44:55.527Z,1.50
2023-04-03T08:47:26.428Z,1.10
2023-04-03T08:50:07.285Z,1.40
2023-04-03T08:52:39.402Z,0.90
2023-04-03T08:55:08.523Z,0.93
2023-04-03T08:57:38.485Z,1.47
2023-04-03T09:00:08.871Z,0.90
2023-04-03T09:02:38.209Z,1.00
2023-04-03T09:05:12.238Z,1.20
2023-04-03T09:07:42.023Z,1.10
2023-04-03T09:10:11.553Z,0.93
2023-04-03T09:12:40.625Z,0.93
2023-04-03T09:15:13.209Z,1.00
2023-04-03T09:17:44.761Z,0.90
2023-04-03T09:20:19.706Z,1.50
2023-04-03T09:22:52.257Z,1.50
2023-04-03T09:25:22.538Z,0.90
2023-04-03T09:27:50.909Z,0.80
2023-04-03T09:30:20.035Z,0.87
2023-04-03T09:32:48.590Z,1.00
2023-04-03T09:35:27.395Z,1.00
2023-04-03T09:38:01.475Z,0.90
2023-04-03T09:40:39.551Z,1.00
2023-04-03T09:43:27.458Z,0.97
2023-04-03T09:45:56.310Z,1.00
2023-04-03T09:48:25.219Z,0.93
2023-04-03T09:51:02.624Z,0.90
2023-04-03T09:56:26.832Z,1.03
2023-04-03T09:58:55.538Z,0.90
2023-04-03T10:01:25.612Z,0.83
2023-04-03T10:04:05.039Z,0.73
2023-04-03T10:06:36.495Z,1.03
2023-04-03T10:09:06.202Z,0.97
2023-04-03T10:11:34.827Z,0.73
2023-04-03T10:14:04.241Z,0.90
2023-04-03T10:16:35.628Z,1.10
2023-04-03T10:19:06.273Z,1.03
2023-04-03T10:21:38.569Z,0.80
2023-04-03T10:24:09.835Z,0.83
2023-04-03T10:26:40.033Z,0.80
2023-04-03T10:29:10.422Z,0.80
2023-04-03T10:31:39.989Z,0.97
2023-04-03T10:34:08.688Z,0.93
2023-04-03T10:36:39.724Z,1.00
2023-04-03T10:39:12.046Z,1.07
2023-04-03T10:41:43.274Z,0.70
2023-04-03T10:44:15.171Z,0.80
2023-04-03T10:46:44.524Z,0.60
2023-04-03T10:49:16.128Z,1.10
2023-04-03T10:51:46.535Z,0.90
2023-04-03T10:54:15.485Z,0.70
2023-04-03T10:56:44.488Z,1.03
2023-04-03T10:59:21.737Z,0.70
2023-04-03T11:01:51.117Z,1.03
2023-04-03T11:04:20.487Z,0.83
2023-04-03T11:06:51.897Z,0.80
2023-04-03T11:09:22.538Z,0.87
2023-04-03T11:11:51.143Z,0.80
2023-04-03T11:14:21.264Z,1.07
2023-04-03T11:16:54.337Z,0.93
2023-04-03T11:19:25.281Z,0.80
2023-04-03T11:21:57.275Z,0.80
2023-04-03T11:24:26.390Z,0.70
2023-04-03T11:26:59.609Z,0.80
2023-04-03T11:32:06.646Z,0.83
2023-04-03T11:34:37.352Z,0.80
2023-04-03T11:37:07.245Z,0.90
2023-04-03T11:39:36.858Z,0.90
2023-04-03T11:42:16.426Z,0.90
2023-04-03T11:44:44.804Z,0.60
2023-04-03T11:47:13.382Z,0.80
2023-04-03T11:50:01.441Z,0.60
2023-04-03T11:52:49.235Z,0.60
2023-04-03T11:55:37.015Z,1.10
2023-04-03T11:58:12.866Z,0.70
2023-04-03T12:01:05.181Z,0.63
2023-04-03T12:03:38.237Z,0.80
2023-04-03T12:06:25.411Z,0.73
2023-04-03T12:08:54.039Z,0.70
2023-04-03T12:11:26.494Z,0.40
2023-04-03T12:14:09.706Z,0.73
2023-04-03T12:16:45.926Z,0.80
2023-04-03T12:19:41.184Z,0.67
2023-04-03T12:22:13.820Z,0.80
2023-04-03T12:24:43.320Z,0.73
2023-04-03T12:27:24.217Z,0.70
2023-04-03T12:29:54.329Z,0.70
2023-04-03T12:32:28.017Z,0.47
2023-04-03T12:34:58.850Z,0.70
2023-04-03T12:37:32.910Z,0.80
2023-04-03T12:40:05.794Z,0.80
2023-04-03T12:42:52.118Z,0.80
2023-04-03T12:45:21.212Z,0.80
2023-04-03T12:47:52.470Z,1.10
2023-04-03T12:50:24.821Z,0.73
2023-04-03T12:52:54.734Z,0.67
2023-04-03T12:55:23.223Z,0.73
2023-04-03T12:57:51.780Z,0.80
2023-04-03T13:00:34.537Z,0.70
2023-04-03T13:03:07.343Z,0.70
2023-04-03T13:05:37.251Z,0.77
2023-04-03T13:08:06.307Z,0.87
2023-04-03T13:10:34.810Z,0.50
2023-04-03T13:13:09.561Z,0.63
2023-04-03T13:15:42.991Z,0.90
2023-04-03T13:18:25.213Z,0.70
2023-04-03T13:20:53.996Z,0.60
2023-04-03T13:23:23.748Z,0.83
2023-04-03T13:25:52.092Z,0.80
2023-04-03T13:28:21.167Z,0.60
2023-04-03T13:31:02.852Z,0.67
2023-04-03T13:33:33.817Z,0.47
2023-04-03T13:36:03.331Z,0.60
2023-04-03T13:38:34.597Z,0.63
2023-04-03T13:41:05.397Z,0.60
2023-04-03T13:43:34.021Z,0.70
2023-04-03T13:46:07.590Z,0.93
2023-04-03T13:48:41.502Z,0.60
2023-04-03T13:51:18.379Z,0.90
2023-04-03T13:53:47.745Z,0.63
2023-04-03T13:56:19.750Z,0.57
2023-04-03T13:58:55.590Z,0.77
2023-04-03T14:01:24.378Z,0.97
2023-04-03T14:03:56.499Z,0.70
2023-04-03T14:06:25.096Z,0.60
2023-04-03T14:08:53.705Z,0.50
2023-04-03T14:11:23.392Z,0.70
2023-04-03T14:13:52.382Z,0.70
2023-04-03T14:16:22.247Z,0.63
2023-04-03T14:18:50.836Z,0.57
2023-04-03T14:21:20.928Z,0.60
2023-04-03T14:23:53.764Z,0.50
2023-04-03T14:26:22.758Z,0.73
2023-04-03T14:28:54.273Z,0.97
2023-04-03T14:31:22.884Z,0.60
2023-04-03T14:33:51.507Z,0.60
2023-04-03T14:36:22.893Z,0.60
2023-04-03T14:38:52.015Z,0.60
2023-04-03T14:41:21.254Z,0.70
2023-04-03T14:43:49.666Z,0.70
2023-04-03T14:46:18.596Z,1.03
2023-04-03T14:48:47.012Z,0.80
2023-04-03T14:51:15.723Z,0.50
2023-04-03T14:53:45.848Z,0.70
2023-04-03T14:56:14.966Z,0.67
2023-04-03T14:58:43.305Z,0.50
2023-04-03T15:01:12.827Z,0.60
2023-04-03T15:03:41.282Z,0.70
2023-04-03T15:06:11.030Z,0.60
2023-04-03T15:08:42.160Z,0.60
2023-04-03T15:11:11.926Z,0.77
2023-04-03T15:13:40.482Z,0.60
2023-04-03T15:16:09.058Z,0.50
2023-04-03T15:18:38.887Z,0.90
2023-04-03T15:21:07.435Z,0.70
2023-04-03T15:23:35.821Z,0.70
2023-04-03T15:26:04.229Z,0.50
2023-04-03T15:28:34.998Z,0.70
2023-04-03T15:31:03.378Z,0.70
2023-04-03T15:33:31.724Z,0.70
2023-04-03T15:36:07.245Z,0.90
2023-04-03T15:38:40.322Z,0.93
2023-04-03T15:41:08.681Z,0.80
2023-04-03T15:43:38.433Z,0.60
2023-04-03T15:46:06.798Z,0.70
2023-04-03T15:48:35.236Z,0.70
2023-04-03T15:51:05.922Z,0.83
2023-04-03T15:53:34.288Z,0.73
2023-04-03T15:56:02.640Z,0.70
2023-04-03T15:58:31.047Z,0.50
2023-04-03T16:01:00.838Z,0.77
2023-04-03T16:03:31.069Z,0.73
2023-04-03T16:05:59.460Z,0.73
2023-04-03T16:08:27.813Z,0.63
2023-04-03T16:10:56.163Z,0.90
2023-04-03T16:13:24.508Z,0.60
2023-04-03T16:15:52.892Z,0.60
2023-04-03T16:18:22.618Z,0.70
2023-04-03T16:20:53.903Z,0.60
2023-04-03T16:23:22.323Z,0.83
2023-04-03T16:25:51.234Z,0.90
2023-04-03T16:28:19.961Z,1.00
2023-04-03T16:30:48.465Z,0.87
2023-04-03T16:33:16.820Z,0.70
2023-04-03T16:35:46.998Z,0.70
2023-04-03T16:38:15.866Z,0.70
2023-04-03T16:40:44.361Z,0.60
2023-04-03T16:43:12.737Z,0.80
2023-04-03T16:45:41.609Z,0.73
2023-04-03T16:48:10.127Z,0.70
2023-04-03T16:50:38.563Z,1.00
2023-04-03T16:53:10.363Z,0.80
2023-04-03T16:55:38.728Z,0.70
2023-04-03T16:58:07.120Z,0.70
2023-04-03T17:00:35.973Z,0.97
2023-04-03T17:03:04.407Z,0.90
2023-04-03T17:05:32.812Z,0.93
2023-04-03T17:08:01.766Z,0.80
2023-04-03T17:10:31.568Z,0.60
2023-04-03T17:12:59.929Z,0.83
2023-04-03T17:15:28.271Z,0.70
2023-04-03T17:17:59.917Z,0.60
2023-04-03T17:20:28.431Z,0.80
2023-04-03T17:22:56.785Z,0.90
2023-04-03T17:25:25.106Z,0.80
2023-04-03T17:27:54.841Z,0.70
2023-04-03T17:30:24.262Z,0.80
2023-04-03T17:32:53.906Z,1.10
2023-04-03T17:35:22.284Z,0.90
2023-04-03T17:37:50.853Z,0.80
2023-04-03T17:40:19.311Z,0.60
2023-04-03T17:42:47.695Z,0.90
2023-04-03T17:45:17.485Z,0.57
2023-04-03T17:47:46.682Z,0.57
2023-04-03T17:50:16.316Z,0.80
2023-04-03T17:52:47.889Z,0.80
2023-04-03T17:55:17.751Z,0.60
2023-04-03T17:57:46.155Z,0.90
2023-04-03T18:00:15.671Z,0.73
2023-04-03T18:02:45.851Z,0.80
2023-04-03T18:05:14.258Z,0.70
2023-04-03T18:07:42.648Z,0.73
2023-04-03T18:10:11.272Z,0.60
2023-04-03T18:12:40.963Z,0.90
2023-04-03T18:15:09.605Z,0.93
2023-04-03T18:17:38.064Z,0.80
2023-04-03T18:20:09.595Z,1.00
2023-04-03T18:22:37.976Z,0.80
2023-04-03T18:25:06.747Z,0.70
2023-04-03T18:27:35.116Z,0.70
2023-04-03T18:30:03.972Z,0.80
2023-04-03T18:32:32.349Z,0.70
2023-04-03T18:35:01.303Z,0.90
2023-04-03T18:37:31.835Z,1.00
2023-04-03T18:40:00.227Z,0.73
2023-04-03T18:42:28.605Z,0.73
2023-04-03T18:44:58.592Z,0.60
2023-04-03T18:47:29.992Z,0.80
2023-04-03T18:49:58.311Z,0.80
2023-04-03T18:52:26.646Z,0.80
2023-04-03T18:54:56.857Z,0.80
2023-04-03T18:57:26.574Z,0.87
2023-04-03T18:59:55.036Z,0.70
2023-04-03T19:02:25.932Z,0.53
2023-04-03T19:04:54.571Z,0.70
2023-04-03T19:07:22.929Z,0.77
2023-04-03T19:09:51.298Z,0.70
2023-04-03T19:12:21.080Z,0.80
2023-04-03T19:14:49.424Z,1.17
2023-04-03T19:17:17.928Z,0.70
2023-04-03T19:19:46.304Z,0.73
2023-04-03T19:22:14.698Z,0.60
2023-04-03T19:24:43.064Z,0.80
2023-04-03T19:27:11.442Z,0.70
2023-04-03T19:29:41.190Z,0.73
2023-04-03T19:32:11.935Z,0.70
2023-04-03T19:34:41.894Z,0.90
2023-04-03T19:37:10.484Z,0.77
2023-04-03T19:39:38.980Z,1.00
2023-04-03T19:42:07.426Z,1.00
2023-04-03T19:44:36.142Z,0.93
2023-04-03T19:47:05.911Z,0.80
2023-04-03T19:49:34.279Z,1.03
2023-04-03T19:52:02.644Z,0.90
2023-04-03T19:54:31.110Z,0.90
2023-04-03T19:57:00.019Z,0.87
2023-04-03T19:59:30.015Z,0.93
2023-04-03T20:01:58.640Z,0.80
2023-04-03T20:04:28.494Z,0.93
2023-04-03T20:06:57.026Z,1.07
2023-04-03T20:09:25.712Z,0.80
2023-04-03T20:11:54.242Z,0.90
2023-04-03T20:14:22.833Z,0.97
2023-04-03T20:16:51.168Z,0.90
2023-04-03T20:19:19.509Z,0.70
2023-04-03T20:21:50.328Z,0.70
2023-04-03T20:24:18.735Z,1.00
2023-04-03T20:26:54.273Z,0.90
2023-04-03T20:29:23.371Z,0.93
2023-04-03T20:31:53.309Z,0.80
2023-04-03T20:34:21.819Z,1.00
2023-04-03T20:36:52.105Z,0.90
2023-04-03T20:39:24.111Z,0.67
2023-04-03T20:41:52.617Z,1.20
2023-04-03T20:44:21.801Z,1.30
2023-04-03T20:46:53.395Z,1.00
2023-04-03T20:49:22.853Z,1.30
2023-04-03T20:51:52.738Z,1.30
2023-04-03T20:54:21.143Z,1.20
2023-04-03T20:56:50.499Z,1.07
2023-04-03T20:59:19.072Z,1.00
2023-04-03T21:01:48.929Z,0.80
2023-04-03T21:04:19.851Z,1.10
2023-04-03T21:07:06.846Z,1.07
2023-04-03T21:09:54.545Z,1.10
2023-04-03T21:12:41.728Z,1.03
2023-04-03T21:15:29.125Z,1.07
2023-04-03T21:18:07.649Z,1.30
2023-04-03T21:20:37.233Z,1.30
2023-04-03T21:23:05.848Z,1.10
2023-04-03T21:25:34.258Z,1.17
2023-04-03T21:28:04.146Z,1.20
2023-04-03T21:30:32.508Z,1.00
2023-04-03T21:33:00.930Z,1.00
2023-04-03T21:35:30.788Z,0.90
2023-04-03T21:37:59.436Z,1.20
2023-04-03T21:40:27.794Z,1.10
2023-04-03T21:42:56.182Z,0.90
2023-04-03T21:45:24.519Z,1.20
2023-04-03T21:47:52.952Z,0.90
2023-04-03T21:50:21.457Z,1.20
2023-04-03T21:52:51.181Z,1.03
2023-04-03T21:55:24.119Z,1.17
2023-04-03T21:57:53.587Z,1.20
2023-04-03T22:00:22.976Z,1.10
2023-04-03T22:02:57.817Z,1.20
2023-04-03T22:05:33.495Z,1.00
2023-04-03T22:08:04.220Z,1.20
2023-04-03T22:10:32.604Z,1.47
2023-04-03T22:13:01.146Z,1.30
2023-04-03T22:15:30.141Z,1.30
2023-04-03T22:18:00.190Z,1.30
2023-04-03T22:20:28.327Z,1.30
2023-04-03T22:22:56.400Z,1.10
2023-04-03T22:25:25.841Z,1.20
2023-04-03T22:27:53.886Z,1.07
2023-04-03T22:30:22.067Z,0.90
2023-04-03T22:32:59.835Z,1.30
2023-04-03T22:35:27.982Z,1.13
2023-04-03T22:37:56.328Z,1.30
2023-04-03T22:40:31.734Z,1.43
2023-04-03T22:42:59.769Z,1.10
2023-04-03T22:45:27.862Z,1.50
2023-04-03T22:47:58.695Z,1.10
2023-04-03T22:50:27.008Z,1.10
2023-04-03T22:52:55.078Z,1.50
2023-04-03T22:55:24.517Z,1.17
2023-04-03T22:57:53.948Z,1.00
2023-04-03T23:00:22.251Z,1.13
2023-04-03T23:02:50.506Z,1.10
2023-04-03T23:05:18.595Z,0.97
2023-04-03T23:07:46.608Z,1.30
2023-04-03T23:10:14.654Z,1.20
2023-04-03T23:12:42.715Z,1.00
2023-04-03T23:15:14.499Z,1.20
2023-04-03T23:17:50.231Z,1.40
2023-04-03T23:20:18.476Z,1.40
2023-04-03T23:22:46.604Z,1.23
2023-04-03T23:25:14.727Z,1.40
2023-04-03T23:27:42.784Z,1.10
2023-04-03T23:30:13.068Z,1.57
2023-04-03T23:32:41.327Z,1.60
2023-04-03T23:35:11.986Z,1.23
2023-04-03T23:37:40.032Z,1.20
2023-04-03T23:40:10.070Z,1.70
2023-04-03T23:42:38.145Z,1.30
2023-04-03T23:45:13.546Z,1.20
2023-04-03T23:47:41.830Z,1.30
2023-04-03T23:50:11.284Z,1.40
2023-04-03T23:52:39.306Z,1.50
2023-04-03T23:55:08.363Z,1.50
2023-04-03T23:57:36.438Z,1.20
